createdAt,value
2023-05-04T00:00:13.945Z,8.00
2023-05-04T00:02:43.074Z,8.00
2023-05-04T00:05:12.029Z,8.00
2023-05-04T00:07:38.894Z,8.00
2023-05-04T00:10:06.741Z,7.90
2023-05-04T00:12:33.650Z,7.90
2023-05-04T00:15:01.815Z,7.90
2023-05-04T00:17:28.577Z,8.00
2023-05-04T00:19:55.313Z,7.90
2023-05-04T00:22:22.078Z,7.90
2023-05-04T00:24:48.889Z,7.80
2023-05-04T00:27:15.624Z,7.90
2023-05-04T00:29:42.380Z,7.90
2023-05-04T00:32:09.735Z,7.90
2023-05-04T00:34:36.502Z,7.80
2023-05-04T00:37:03.277Z,7.80
2023-05-04T00:39:30.014Z,7.70
2023-05-04T00:41:56.780Z,7.70
2023-05-04T00:44:23.759Z,7.80
2023-05-04T00:46:52.847Z,7.80
2023-05-04T00:49:21.327Z,7.90
2023-05-04T00:51:49.618Z,7.80
2023-05-04T00:54:20.340Z,7.80
2023-05-04T00:56:47.824Z,7.80
2023-05-04T00:59:15.818Z,7.80
2023-05-04T01:01:43.051Z,7.70
2023-05-04T01:04:10.672Z,7.70
2023-05-04T01:06:50.261Z,7.60
2023-05-04T01:09:39.657Z,7.60
2023-05-04T01:12:08.294Z,7.50
2023-05-04T01:14:36.292Z,7.50
2023-05-04T01:17:08.104Z,7.50
2023-05-04T01:19:35.864Z,7.50
2023-05-04T01:22:02.620Z,7.50
2023-05-04T01:24:30.726Z,7.50
2023-05-04T01:27:18.187Z,7.50
2023-05-04T01:30:13.757Z,7.50
2023-05-04T01:32:42.063Z,7.40
2023-05-04T01:35:11.537Z,7.40
2023-05-04T01:37:38.366Z,7.30
2023-05-04T01:40:07.090Z,7.30
2023-05-04T01:42:34.952Z,7.40
2023-05-04T01:45:01.856Z,7.40
2023-05-04T01:47:28.627Z,7.60
2023-05-04T01:49:55.406Z,7.50
2023-05-04T01:52:22.367Z,7.50
2023-05-04T01:54:49.090Z,7.40
2023-05-04T01:57:15.866Z,7.40
2023-05-04T01:59:42.614Z,7.30
2023-05-04T02:02:09.424Z,7.40
2023-05-04T02:04:36.158Z,7.40
2023-05-04T02:07:02.870Z,7.40
2023-05-04T02:09:29.665Z,7.40
2023-05-04T02:11:56.444Z,7.40
2023-05-04T02:14:23.154Z,7.40
2023-05-04T02:16:49.908Z,7.30
2023-05-04T02:19:16.631Z,7.20
2023-05-04T02:21:43.402Z,7.10
2023-05-04T02:24:10.296Z,7.00
2023-05-04T02:26:37.180Z,7.00
2023-05-04T02:29:05.233Z,7.10
2023-05-04T02:31:35.099Z,7.10
2023-05-04T02:34:02.029Z,7.10
2023-05-04T02:36:28.809Z,7.10
2023-05-04T02:38:55.917Z,7.00
2023-05-04T02:41:22.696Z,7.00
2023-05-04T02:43:49.464Z,7.00
2023-05-04T02:46:16.235Z,7.00
2023-05-04T02:48:43.118Z,6.90
2023-05-04T02:51:10.052Z,6.90
2023-05-04T02:53:37.981Z,6.90
2023-05-04T02:56:05.019Z,6.80
2023-05-04T02:58:31.791Z,6.90
2023-05-04T03:00:59.626Z,6.90
2023-05-04T03:03:26.796Z,6.90
2023-05-04T03:05:53.547Z,7.00
2023-05-04T03:08:20.349Z,7.00
2023-05-04T03:10:47.083Z,7.00
2023-05-04T03:13:13.926Z,7.00
2023-05-04T03:15:40.794Z,7.00
2023-05-04T03:18:07.585Z,6.90
2023-05-04T03:20:34.712Z,7.00
2023-05-04T03:23:01.503Z,7.00
2023-05-04T03:25:28.281Z,6.90
2023-05-04T03:27:55.057Z,6.90
2023-05-04T03:30:21.892Z,6.90
2023-05-04T03:32:49.933Z,6.90
2023-05-04T03:35:24.327Z,6.80
2023-05-04T03:37:51.482Z,6.80
2023-05-04T03:40:22.763Z,6.70
2023-05-04T03:42:52.170Z,6.70
2023-05-04T03:45:19.098Z,6.70
2023-05-04T03:47:45.987Z,6.60
2023-05-04T03:50:13.260Z,6.60
2023-05-04T03:52:40.386Z,6.60
2023-05-04T03:55:07.824Z,6.60
2023-05-04T03:57:34.636Z,6.70
2023-05-04T04:00:01.377Z,6.60
2023-05-04T04:02:28.259Z,6.70
2023-05-04T04:04:55.078Z,6.60
2023-05-04T04:07:21.782Z,6.60
2023-05-04T04:09:48.479Z,6.70
2023-05-04T04:12:18.252Z,6.80
2023-05-04T04:14:45.239Z,6.80
2023-05-04T04:17:11.985Z,6.80
2023-05-04T04:19:38.692Z,6.80
2023-05-04T04:22:05.464Z,6.80
2023-05-04T04:24:32.192Z,6.90
2023-05-04T04:26:59.976Z,7.00
2023-05-04T04:29:27.171Z,7.20
2023-05-04T04:31:54.079Z,7.30
2023-05-04T04:34:20.873Z,7.30
2023-05-04T04:36:47.704Z,7.30
2023-05-04T04:39:17.020Z,7.40
2023-05-04T04:41:43.921Z,7.40
2023-05-04T04:44:11.604Z,7.50
2023-05-04T04:46:38.748Z,7.50
2023-05-04T04:49:05.613Z,7.60
2023-05-04T04:51:32.573Z,7.60
2023-05-04T04:53:59.357Z,7.70
2023-05-04T04:56:26.355Z,7.80
2023-05-04T04:58:53.282Z,7.80
2023-05-04T05:01:20.056Z,7.90
2023-05-04T05:03:47.069Z,8.00
2023-05-04T05:06:14.232Z,8.20
2023-05-04T05:08:41.678Z,8.30
2023-05-04T05:11:08.479Z,8.40
2023-05-04T05:13:35.225Z,8.50
2023-05-04T05:16:02.027Z,8.60
2023-05-04T05:18:29.201Z,8.80
2023-05-04T05:20:56.480Z,8.80
2023-05-04T05:23:23.252Z,8.90
2023-05-04T05:25:50.020Z,8.90
2023-05-04T05:28:17.796Z,9.00
2023-05-04T05:30:44.901Z,9.10
2023-05-04T05:33:11.812Z,9.10
2023-05-04T05:35:38.575Z,9.20
2023-05-04T05:38:05.381Z,9.20
2023-05-04T05:40:32.580Z,9.20
2023-05-04T05:42:59.356Z,9.20
2023-05-04T05:45:26.279Z,9.30
2023-05-04T05:47:53.084Z,9.30
2023-05-04T05:50:20.436Z,9.30
2023-05-04T05:52:47.238Z,9.30
2023-05-04T05:55:14.036Z,9.30
2023-05-04T05:57:40.738Z,9.40
2023-05-04T06:00:08.866Z,9.40
2023-05-04T06:02:35.684Z,9.50
2023-05-04T06:05:02.543Z,9.60
2023-05-04T06:07:29.456Z,9.70
2023-05-04T06:09:56.615Z,9.80
2023-05-04T06:12:23.409Z,9.90
2023-05-04T06:14:50.193Z,10.00
2023-05-04T06:17:18.545Z,10.20
2023-05-04T06:19:46.408Z,10.30
2023-05-04T06:22:14.625Z,10.30
2023-05-04T06:24:41.569Z,10.40
2023-05-04T06:27:08.638Z,10.50
2023-05-04T06:29:38.162Z,10.50
2023-05-04T06:32:05.482Z,10.50
2023-05-04T06:34:32.329Z,10.60
2023-05-04T06:36:59.090Z,10.70
2023-05-04T06:39:25.912Z,10.90
2023-05-04T06:41:55.714Z,11.00
2023-05-04T06:44:22.781Z,11.20
2023-05-04T06:46:49.607Z,11.30
2023-05-04T06:49:17.883Z,11.50
2023-05-04T06:51:44.662Z,11.50
2023-05-04T06:54:12.274Z,11.70
2023-05-04T06:56:39.618Z,11.80
2023-05-04T06:59:07.014Z,12.00
2023-05-04T07:01:34.117Z,12.20
2023-05-04T07:04:01.854Z,12.20
2023-05-04T07:06:29.448Z,12.20
2023-05-04T07:08:56.981Z,12.30
2023-05-04T07:11:23.759Z,12.30
2023-05-04T07:13:50.579Z,12.30
2023-05-04T07:16:17.366Z,12.40
2023-05-04T07:18:44.256Z,12.40
2023-05-04T07:21:26.665Z,12.50
2023-05-04T07:23:54.963Z,12.60
2023-05-04T07:26:22.688Z,12.60
2023-05-04T07:28:49.663Z,12.60
2023-05-04T07:31:16.392Z,12.70
2023-05-04T07:33:43.536Z,12.90
2023-05-04T07:36:10.349Z,12.90
2023-05-04T07:38:37.347Z,13.00
2023-05-04T07:41:04.139Z,13.10
2023-05-04T07:43:30.950Z,13.20
2023-05-04T07:45:57.745Z,13.50
2023-05-04T07:48:26.426Z,13.60
2023-05-04T07:50:53.934Z,13.60
2023-05-04T07:53:21.004Z,14.00
2023-05-04T07:55:48.527Z,14.20
2023-05-04T07:58:16.475Z,14.40
2023-05-04T08:00:43.366Z,14.30
2023-05-04T08:03:10.255Z,14.30
2023-05-04T08:05:37.076Z,14.50
2023-05-04T08:08:03.888Z,14.60
2023-05-04T08:10:30.871Z,14.60
2023-05-04T08:12:58.188Z,14.60
2023-05-04T08:15:24.984Z,14.80
2023-05-04T08:17:51.747Z,15.00
2023-05-04T08:20:18.619Z,15.20
2023-05-04T08:22:46.237Z,15.20
2023-05-04T08:25:15.666Z,15.20
2023-05-04T08:27:42.425Z,15.30
2023-05-04T08:30:10.104Z,15.30
2023-05-04T08:32:36.880Z,15.60
2023-05-04T08:35:04.109Z,15.90
2023-05-04T08:37:31.021Z,16.10
2023-05-04T08:39:57.762Z,16.20
2023-05-04T08:42:29.928Z,16.50
2023-05-04T08:44:57.910Z,16.70
2023-05-04T08:47:27.895Z,16.90
2023-05-04T08:49:56.247Z,17.10
2023-05-04T08:52:25.349Z,17.20
2023-05-04T08:54:56.064Z,17.50
2023-05-04T08:57:26.423Z,17.60
2023-05-04T08:59:55.164Z,17.70
2023-05-04T09:02:23.896Z,17.70
2023-05-04T09:04:54.097Z,17.80
2023-05-04T09:07:22.075Z,18.10
2023-05-04T09:09:51.480Z,18.10
2023-05-04T09:12:19.040Z,18.10
2023-05-04T09:14:46.464Z,18.30
2023-05-04T09:17:25.315Z,18.40
2023-05-04T09:20:02.989Z,18.30
2023-05-04T09:22:30.879Z,18.40
2023-05-04T09:25:12.865Z,18.40
2023-05-04T09:27:41.345Z,18.50
2023-05-04T09:30:09.197Z,18.50
2023-05-04T09:32:51.717Z,18.50
2023-05-04T09:35:33.680Z,18.60
2023-05-04T09:38:01.677Z,18.60
2023-05-04T09:40:38.293Z,18.70
2023-05-04T09:43:06.522Z,18.90
2023-05-04T09:45:44.468Z,19.10
2023-05-04T09:48:31.027Z,19.20
2023-05-04T09:50:59.677Z,19.30
2023-05-04T09:53:31.508Z,19.40
2023-05-04T09:56:17.036Z,19.60
2023-05-04T09:58:45.586Z,19.80
2023-05-04T10:01:12.448Z,19.90
2023-05-04T10:03:40.873Z,19.90
2023-05-04T10:06:09.403Z,19.90
2023-05-04T10:08:37.220Z,20.00
2023-05-04T10:11:04.672Z,20.10
2023-05-04T10:13:31.575Z,20.30
2023-05-04T10:16:04.625Z,20.40
2023-05-04T10:18:51.381Z,20.40
2023-05-04T10:21:31.755Z,20.60
2023-05-04T10:24:42.988Z,20.70
2023-05-04T10:27:17.617Z,20.80
2023-05-04T10:29:50.589Z,21.10
2023-05-04T10:32:19.950Z,21.20
2023-05-04T10:34:46.826Z,21.20
2023-05-04T10:37:19.470Z,21.30
2023-05-04T10:39:53.917Z,21.50
2023-05-04T10:42:21.668Z,21.50
2023-05-04T10:44:57.872Z,21.40
2023-05-04T10:47:33.505Z,21.40
2023-05-04T10:50:12.210Z,21.40
2023-05-04T10:52:53.740Z,21.50
2023-05-04T10:55:22.320Z,21.80
2023-05-04T10:57:55.903Z,22.00
2023-05-04T11:00:31.054Z,22.00
2023-05-04T11:03:03.975Z,22.20
2023-05-04T11:05:46.824Z,22.20
2023-05-04T11:08:24.937Z,22.20
2023-05-04T11:11:09.069Z,22.40
2023-05-04T11:13:47.159Z,22.70
2023-05-04T11:16:23.900Z,22.60
2023-05-04T11:18:50.754Z,22.50
2023-05-04T11:21:25.614Z,22.60
2023-05-04T11:23:59.770Z,22.80
2023-05-04T11:26:28.526Z,23.10
2023-05-04T11:28:55.500Z,23.50
2023-05-04T11:31:22.395Z,24.10
2023-05-04T11:33:54.666Z,24.40
2023-05-04T11:36:22.557Z,24.80
2023-05-04T11:38:49.768Z,25.20
2023-05-04T11:41:16.826Z,25.70
2023-05-04T11:43:45.397Z,25.70
2023-05-04T11:46:14.184Z,25.90
2023-05-04T11:48:41.503Z,26.40
2023-05-04T11:51:08.573Z,26.80
2023-05-04T11:53:39.693Z,27.40
2023-05-04T11:56:11.041Z,27.90
2023-05-04T11:58:38.006Z,28.30
2023-05-04T12:01:07.068Z,28.10
2023-05-04T12:06:05.015Z,28.10
2023-05-04T12:08:41.901Z,27.90
2023-05-04T12:11:28.996Z,27.80
2023-05-04T12:14:09.930Z,28.10
2023-05-04T12:16:38.328Z,28.40
2023-05-04T12:19:15.511Z,28.40
2023-05-04T12:21:53.623Z,27.90
2023-05-04T12:24:27.887Z,28.10
2023-05-04T12:26:54.738Z,28.20
2023-05-04T12:29:23.001Z,28.30
2023-05-04T12:31:49.955Z,28.50
2023-05-04T12:34:16.927Z,28.30
2023-05-04T12:36:44.362Z,28.90
2023-05-04T12:39:11.354Z,29.20
2023-05-04T12:41:38.124Z,29.40
2023-05-04T12:44:05.030Z,29.50
2023-05-04T12:46:31.964Z,28.90
2023-05-04T12:48:58.775Z,28.60
2023-05-04T12:51:26.547Z,29.50
2023-05-04T12:53:53.370Z,29.50
2023-05-04T12:56:20.124Z,29.10
2023-05-04T12:58:46.955Z,29.00
2023-05-04T13:01:13.757Z,29.50
2023-05-04T13:03:40.748Z,29.60
2023-05-04T13:06:08.838Z,29.70
2023-05-04T13:08:35.597Z,29.70
2023-05-04T13:11:02.372Z,30.10
2023-05-04T13:13:31.572Z,29.60
2023-05-04T13:15:58.455Z,30.10
2023-05-04T13:18:27.953Z,29.70
2023-05-04T13:20:55.621Z,29.10
2023-05-04T13:23:23.035Z,29.20
2023-05-04T13:25:50.797Z,29.70
2023-05-04T13:28:18.196Z,30.10
2023-05-04T13:30:45.142Z,30.20
2023-05-04T13:33:25.054Z,30.10
2023-05-04T13:36:01.766Z,30.30
2023-05-04T13:38:28.521Z,29.60
2023-05-04T13:40:55.715Z,29.50
2023-05-04T13:43:22.679Z,29.20
2023-05-04T13:45:49.486Z,28.70
2023-05-04T13:48:16.668Z,28.50
2023-05-04T13:50:43.447Z,28.20
2023-05-04T13:53:11.132Z,28.70
2023-05-04T13:55:38.362Z,28.90
2023-05-04T13:58:05.142Z,28.50
2023-05-04T14:00:32.548Z,28.30
2023-05-04T14:02:59.472Z,27.70
2023-05-04T14:05:26.352Z,27.70
2023-05-04T14:07:53.081Z,28.10
2023-05-04T14:10:19.794Z,28.40
2023-05-04T14:12:47.074Z,28.80
2023-05-04T14:15:13.844Z,28.90
2023-05-04T14:17:40.563Z,29.20
2023-05-04T14:20:08.778Z,28.50
2023-05-04T14:22:38.074Z,27.80
2023-05-04T14:25:06.014Z,27.80
2023-05-04T14:27:35.870Z,28.10
2023-05-04T14:30:03.949Z,28.10
2023-05-04T14:32:30.842Z,27.60
2023-05-04T14:35:06.425Z,27.40
2023-05-04T14:37:37.401Z,27.20
2023-05-04T14:40:09.203Z,26.60
2023-05-04T14:42:37.180Z,26.50
2023-05-04T14:45:05.424Z,26.50
2023-05-04T14:47:33.619Z,26.40
2023-05-04T14:50:04.042Z,26.20
2023-05-04T14:52:31.468Z,26.30
2023-05-04T14:54:58.215Z,26.30
2023-05-04T14:57:24.917Z,26.30
2023-05-04T14:59:52.068Z,26.00
2023-05-04T15:02:20.770Z,26.10
2023-05-04T15:04:47.493Z,26.00
2023-05-04T15:07:15.989Z,25.90
2023-05-04T15:09:42.787Z,25.80
2023-05-04T15:12:10.292Z,25.70
2023-05-04T15:14:37.578Z,25.50
2023-05-04T15:17:05.109Z,25.50
2023-05-04T15:19:31.937Z,25.40
2023-05-04T15:21:58.650Z,25.40
2023-05-04T15:24:25.511Z,25.30
2023-05-04T15:26:52.229Z,25.40
2023-05-04T15:29:19.058Z,25.50
2023-05-04T15:31:45.898Z,25.60
2023-05-04T15:34:12.729Z,25.70
2023-05-04T15:36:39.471Z,25.60
2023-05-04T15:39:08.176Z,25.60
2023-05-04T15:41:35.849Z,25.50
2023-05-04T15:44:06.614Z,25.30
2023-05-04T15:46:34.212Z,25.10
2023-05-04T15:49:01.102Z,25.00
2023-05-04T15:51:29.593Z,25.00
2023-05-04T15:53:56.313Z,25.00
2023-05-04T15:56:23.192Z,25.00
2023-05-04T15:58:49.977Z,25.00
2023-05-04T16:01:16.761Z,25.00
2023-05-04T16:03:43.724Z,25.30
2023-05-04T16:06:12.461Z,25.60
2023-05-04T16:08:39.517Z,25.70
2023-05-04T16:11:07.719Z,25.70
2023-05-04T16:13:35.057Z,25.40
2023-05-04T16:16:01.965Z,25.10
2023-05-04T16:18:28.760Z,24.80
2023-05-04T16:20:55.687Z,24.80
2023-05-04T16:23:24.820Z,24.80
2023-05-04T16:25:51.882Z,24.60
2023-05-04T16:28:18.710Z,24.50
2023-05-04T16:30:45.759Z,24.40
2023-05-04T16:33:12.954Z,24.40
2023-05-04T16:35:39.777Z,24.30
2023-05-04T16:38:06.835Z,24.40
2023-05-04T16:40:33.694Z,24.30
2023-05-04T16:43:00.627Z,24.30
2023-05-04T16:45:33.518Z,24.30
2023-05-04T16:48:00.846Z,24.30
2023-05-04T16:50:27.633Z,24.20
2023-05-04T16:52:54.416Z,24.30
2023-05-04T16:55:21.362Z,24.60
2023-05-04T16:57:48.694Z,24.70
2023-05-04T17:00:17.002Z,24.70
2023-05-04T17:02:43.870Z,24.90
2023-05-04T17:05:10.901Z,25.10
2023-05-04T17:07:39.561Z,25.40
2023-05-04T17:10:09.883Z,25.60
2023-05-04T17:12:36.779Z,25.90
2023-05-04T17:15:04.287Z,26.40
2023-05-04T17:17:31.202Z,26.80
2023-05-04T17:19:58.058Z,27.00
2023-05-04T17:22:25.282Z,27.00
2023-05-04T17:24:52.353Z,26.70
2023-05-04T17:27:19.107Z,26.70
2023-05-04T17:29:45.932Z,26.40
2023-05-04T17:32:12.721Z,26.00
2023-05-04T17:34:39.522Z,25.40
2023-05-04T17:37:06.346Z,24.80
2023-05-04T17:39:33.090Z,24.10
2023-05-04T17:41:59.953Z,23.70
2023-05-04T17:44:28.660Z,23.20
2023-05-04T17:46:55.840Z,22.60
2023-05-04T17:49:22.609Z,22.20
2023-05-04T17:51:49.409Z,21.80
2023-05-04T17:54:16.680Z,21.30
2023-05-04T17:56:43.816Z,20.70
2023-05-04T17:59:10.613Z,20.30
2023-05-04T18:01:37.516Z,19.80
2023-05-04T18:04:04.508Z,19.40
2023-05-04T18:06:32.740Z,19.00
2023-05-04T18:09:00.942Z,18.70
2023-05-04T18:11:28.183Z,18.50
2023-05-04T18:13:56.346Z,18.20
2023-05-04T18:16:24.351Z,18.00
2023-05-04T18:18:51.939Z,17.70
2023-05-04T18:21:18.769Z,17.50
2023-05-04T18:23:46.089Z,17.30
2023-05-04T18:26:22.544Z,17.10
2023-05-04T18:28:49.657Z,16.90
2023-05-04T18:31:16.505Z,16.70
2023-05-04T18:33:45.020Z,16.50
2023-05-04T18:36:11.963Z,16.30
2023-05-04T18:38:39.381Z,16.10
2023-05-04T18:41:06.712Z,15.90
2023-05-04T18:43:33.484Z,15.70
2023-05-04T18:46:07.561Z,15.50
2023-05-04T18:48:34.551Z,15.30
2023-05-04T18:51:01.966Z,15.20
2023-05-04T18:53:28.704Z,15.10
2023-05-04T18:56:06.077Z,15.20
2023-05-04T18:58:33.454Z,15.10
2023-05-04T19:01:00.341Z,15.00
2023-05-04T19:03:27.383Z,14.90
2023-05-04T19:05:54.714Z,14.80
2023-05-04T19:08:21.580Z,14.70
2023-05-04T19:10:49.280Z,14.60
2023-05-04T19:13:16.755Z,14.50
2023-05-04T19:15:44.009Z,14.40
2023-05-04T19:18:11.817Z,14.40
2023-05-04T19:20:39.988Z,14.30
2023-05-04T19:23:06.866Z,14.10
2023-05-04T19:25:34.661Z,14.10
2023-05-04T19:28:08.733Z,14.00
2023-05-04T19:30:39.449Z,13.90
2023-05-04T19:33:09.362Z,13.90
2023-05-04T19:35:36.333Z,14.00
2023-05-04T19:38:06.025Z,14.10
2023-05-04T19:40:33.997Z,14.00
2023-05-04T19:43:01.028Z,14.00
2023-05-04T19:45:27.962Z,13.90
2023-05-04T19:47:54.746Z,13.90
2023-05-04T19:50:22.134Z,13.80
2023-05-04T19:52:50.998Z,13.70
2023-05-04T19:55:17.780Z,13.70
2023-05-04T19:57:44.599Z,13.60
2023-05-04T20:00:12.584Z,13.60
2023-05-04T20:02:43.086Z,13.50
2023-05-04T20:05:09.928Z,13.50
2023-05-04T20:07:36.998Z,13.50
2023-05-04T20:10:08.445Z,13.50
2023-05-04T20:12:35.544Z,13.50
2023-05-04T20:15:02.427Z,13.50
2023-05-04T20:17:29.450Z,13.50
2023-05-04T20:19:56.431Z,13.50
2023-05-04T20:22:23.187Z,13.40
2023-05-04T20:24:50.255Z,13.40
2023-05-04T20:27:16.965Z,13.40
2023-05-04T20:29:43.649Z,13.40
2023-05-04T20:32:10.676Z,13.50
2023-05-04T20:34:39.393Z,13.50
2023-05-04T20:37:06.390Z,13.50
2023-05-04T20:39:34.249Z,13.50
2023-05-04T20:42:01.285Z,13.50
2023-05-04T20:44:28.037Z,13.50
2023-05-04T20:46:54.765Z,13.50
2023-05-04T20:49:21.460Z,13.50
2023-05-04T20:51:48.150Z,13.50
2023-05-04T20:54:14.902Z,13.50
2023-05-04T20:56:41.887Z,13.50
2023-05-04T20:59:08.611Z,13.60
2023-05-04T21:01:38.473Z,13.60
2023-05-04T21:04:05.369Z,13.60
2023-05-04T21:06:32.064Z,13.50
2023-05-04T21:08:58.810Z,13.60
2023-05-04T21:11:25.620Z,13.60
2023-05-04T21:13:52.573Z,13.70
2023-05-04T21:16:19.396Z,13.70
2023-05-04T21:18:46.194Z,13.70
2023-05-04T21:21:12.973Z,13.80
2023-05-04T21:23:39.761Z,13.80
2023-05-04T21:26:06.799Z,13.80
2023-05-04T21:28:33.586Z,13.80
2023-05-04T21:31:00.617Z,13.80
2023-05-04T21:33:27.426Z,13.80
2023-05-04T21:35:54.321Z,13.70
2023-05-04T21:38:22.183Z,13.70
2023-05-04T21:40:49.059Z,13.80
2023-05-04T21:43:15.820Z,13.80
2023-05-04T21:45:42.631Z,13.70
2023-05-04T21:48:09.344Z,13.70
2023-05-04T21:50:36.143Z,13.60
2023-05-04T21:53:03.203Z,13.60
2023-05-04T21:55:30.400Z,13.50
2023-05-04T21:57:57.284Z,13.50
2023-05-04T22:00:24.273Z,13.40
2023-05-04T22:02:54.647Z,13.40
2023-05-04T22:05:22.374Z,13.30
2023-05-04T22:07:49.931Z,13.30
2023-05-04T22:10:17.200Z,13.30
2023-05-04T22:12:43.932Z,13.20
2023-05-04T22:15:11.231Z,13.20
2023-05-04T22:17:38.041Z,13.10
2023-05-04T22:20:06.088Z,12.90
2023-05-04T22:22:32.958Z,12.90
2023-05-04T22:24:59.987Z,12.80
2023-05-04T22:27:26.802Z,12.80
2023-05-04T22:29:53.599Z,12.80
2023-05-04T22:32:20.354Z,12.80
2023-05-04T22:34:47.063Z,12.70
2023-05-04T22:37:13.788Z,12.70
2023-05-04T22:39:40.554Z,12.60
2023-05-04T22:42:07.618Z,12.50
2023-05-04T22:44:34.615Z,12.50
2023-05-04T22:47:01.442Z,12.50
2023-05-04T22:49:28.195Z,12.50
2023-05-04T22:51:54.979Z,12.40
2023-05-04T22:54:21.980Z,12.40
2023-05-04T22:56:48.772Z,12.40
2023-05-04T22:59:15.528Z,12.30
2023-05-04T23:01:44.200Z,12.30
2023-05-04T23:04:11.488Z,12.30
2023-05-04T23:06:38.627Z,12.20
2023-05-04T23:09:05.517Z,12.20
2023-05-04T23:11:32.372Z,12.20
2023-05-04T23:13:59.329Z,12.10
2023-05-04T23:16:26.111Z,12.10
2023-05-04T23:18:52.899Z,12.10
2023-05-04T23:21:19.654Z,12.10
2023-05-04T23:23:50.086Z,12.10
2023-05-04T23:26:16.837Z,12.10
2023-05-04T23:28:43.849Z,12.10
2023-05-04T23:31:11.331Z,12.10
2023-05-04T23:33:38.182Z,12.10
2023-05-04T23:36:05.053Z,12.00
2023-05-04T23:38:31.769Z,12.00
2023-05-04T23:41:01.018Z,11.90
2023-05-04T23:43:27.782Z,11.80
2023-05-04T23:46:04.809Z,11.80
2023-05-04T23:48:32.505Z,11.80
2023-05-04T23:51:04.500Z,11.80
2023-05-04T23:53:32.235Z,11.80
2023-05-04T23:56:04.232Z,11.80
2023-05-04T23:58:32.333Z,11.80
